sensor_id;sensor_type;location;lat;lon;timestamp;temperature;humidity
32348;DHT22;18821;44.800;10.326;2022-07-21T00:01:10;27.60;96.10
32348;DHT22;18821;44.800;10.326;2022-07-21T00:03:36;27.60;96.40
32348;DHT22;18821;44.800;10.326;2022-07-21T00:06:02;27.60;96.40
32348;DHT22;18821;44.800;10.326;2022-07-21T00:08:29;27.60;96.60
32348;DHT22;18821;44.800;10.326;2022-07-21T00:10:54;27.60;96.80
32348;DHT22;18821;44.800;10.326;2022-07-21T00:13:20;27.50;97.00
32348;DHT22;18821;44.800;10.326;2022-07-21T00:15:47;27.50;97.10
32348;DHT22;18821;44.800;10.326;2022-07-21T00:18:13;27.40;97.00
32348;DHT22;18821;44.800;10.326;2022-07-21T00:20:39;27.30;96.80
32348;DHT22;18821;44.800;10.326;2022-07-21T00:23:05;27.30;96.80
32348;DHT22;18821;44.800;10.326;2022-07-21T00:25:31;27.20;96.90
32348;DHT22;18821;44.800;10.326;2022-07-21T00:27:57;27.20;97.00
32348;DHT22;18821;44.800;10.326;2022-07-21T00:30:23;27.10;96.90
32348;DHT22;18821;44.800;10.326;2022-07-21T00:32:49;27.10;96.90
32348;DHT22;18821;44.800;10.326;2022-07-21T00:35:15;27.10;96.90
32348;DHT22;18821;44.800;10.326;2022-07-21T00:37:41;27.10;97.00
32348;DHT22;18821;44.800;10.326;2022-07-21T00:40:08;27.00;97.20
32348;DHT22;18821;44.800;10.326;2022-07-21T00:42:34;27.00;97.30
32348;DHT22;18821;44.800;10.326;2022-07-21T00:45:01;27.00;97.30
32348;DHT22;18821;44.800;10.326;2022-07-21T00:47:29;27.00;97.20
32348;DHT22;18821;44.800;10.326;2022-07-21T00:49:57;27.00;97.20
32348;DHT22;18821;44.800;10.326;2022-07-21T00:52:24;27.00;97.10
32348;DHT22;18821;44.800;10.326;2022-07-21T00:54:51;27.00;97.20
32348;DHT22;18821;44.800;10.326;2022-07-21T00:57:17;27.00;97.20
32348;DHT22;18821;44.800;10.326;2022-07-21T00:59:44;27.00;97.20
32348;DHT22;18821;44.800;10.326;2022-07-21T01:02:11;27.00;97.00
32348;DHT22;18821;44.800;10.326;2022-07-21T01:04:38;27.00;97.00
32348;DHT22;18821;44.800;10.326;2022-07-21T01:07:05;26.90;96.90
32348;DHT22;18821;44.800;10.326;2022-07-21T01:09:32;26.90;97.00
32348;DHT22;18821;44.800;10.326;2022-07-21T01:11:58;26.70;97.00
32348;DHT22;18821;44.800;10.326;2022-07-21T01:14:25;26.70;97.20
32348;DHT22;18821;44.800;10.326;2022-07-21T01:16:51;26.70;97.30
32348;DHT22;18821;44.800;10.326;2022-07-21T01:19:17;26.70;97.40
32348;DHT22;18821;44.800;10.326;2022-07-21T01:21:46;26.60;97.50
32348;DHT22;18821;44.800;10.326;2022-07-21T01:24:12;26.60;97.50
32348;DHT22;18821;44.800;10.326;2022-07-21T01:26:43;26.60;97.40
32348;DHT22;18821;44.800;10.326;2022-07-21T01:29:09;26.70;97.10
32348;DHT22;18821;44.800;10.326;2022-07-21T01:31:37;26.70;96.70
32348;DHT22;18821;44.800;10.326;2022-07-21T01:34:03;26.70;96.70
32348;DHT22;18821;44.800;10.326;2022-07-21T01:36:30;26.80;96.90
32348;DHT22;18821;44.800;10.326;2022-07-21T01:38:56;26.80;97.50
32348;DHT22;18821;44.800;10.326;2022-07-21T01:41:41;26.80;97.60
32348;DHT22;18821;44.800;10.326;2022-07-21T01:44:10;26.80;97.60
32348;DHT22;18821;44.800;10.326;2022-07-21T01:46:39;26.70;97.70
32348;DHT22;18821;44.800;10.326;2022-07-21T01:49:05;26.60;98.10
32348;DHT22;18821;44.800;10.326;2022-07-21T01:51:32;26.50;98.20
32348;DHT22;18821;44.800;10.326;2022-07-21T01:53:59;26.60;98.10
32348;DHT22;18821;44.800;10.326;2022-07-21T01:56:26;26.50;98.30
32348;DHT22;18821;44.800;10.326;2022-07-21T01:58:54;26.50;98.50
32348;DHT22;18821;44.800;10.326;2022-07-21T02:01:21;26.50;98.80
32348;DHT22;18821;44.800;10.326;2022-07-21T02:03:48;26.40;99.10
32348;DHT22;18821;44.800;10.326;2022-07-21T02:06:14;26.40;99.10
32348;DHT22;18821;44.800;10.326;2022-07-21T02:08:41;26.40;99.40
32348;DHT22;18821;44.800;10.326;2022-07-21T02:11:11;26.20;99.50
32348;DHT22;18821;44.800;10.326;2022-07-21T02:13:37;26.10;99.80
32348;DHT22;18821;44.800;10.326;2022-07-21T02:16:03;26.00;99.70
32348;DHT22;18821;44.800;10.326;2022-07-21T02:18:29;26.10;99.80
32348;DHT22;18821;44.800;10.326;2022-07-21T02:20:55;26.10;99.90
32348;DHT22;18821;44.800;10.326;2022-07-21T02:23:23;26.10;99.70
32348;DHT22;18821;44.800;10.326;2022-07-21T02:25:50;26.10;99.60
32348;DHT22;18821;44.800;10.326;2022-07-21T02:28:16;26.20;99.70
32348;DHT22;18821;44.800;10.326;2022-07-21T02:30:41;26.00;99.90
32348;DHT22;18821;44.800;10.326;2022-07-21T02:33:08;26.10;99.90
32348;DHT22;18821;44.800;10.326;2022-07-21T02:35:34;26.10;99.90
32348;DHT22;18821;44.800;10.326;2022-07-21T02:38:00;26.10;99.90
32348;DHT22;18821;44.800;10.326;2022-07-21T02:40:26;26.10;99.90
32348;DHT22;18821;44.800;10.326;2022-07-21T02:42:52;26.20;99.90
32348;DHT22;18821;44.800;10.326;2022-07-21T02:45:18;26.20;99.80
32348;DHT22;18821;44.800;10.326;2022-07-21T02:50:16;26.30;99.80
32348;DHT22;18821;44.800;10.326;2022-07-21T02:52:43;26.30;99.90
32348;DHT22;18821;44.800;10.326;2022-07-21T02:55:09;26.20;99.90
32348;DHT22;18821;44.800;10.326;2022-07-21T02:57:35;26.20;99.90
32348;DHT22;18821;44.800;10.326;2022-07-21T03:00:03;26.10;99.90
32348;DHT22;18821;44.800;10.326;2022-07-21T03:02:29;26.00;99.90
32348;DHT22;18821;44.800;10.326;2022-07-21T03:04:55;26.00;99.90
32348;DHT22;18821;44.800;10.326;2022-07-21T03:07:21;26.00;99.90
32348;DHT22;18821;44.800;10.326;2022-07-21T03:09:47;25.90;99.90
32348;DHT22;18821;44.800;10.326;2022-07-21T03:12:12;25.90;99.90
32348;DHT22;18821;44.800;10.326;2022-07-21T03:14:38;25.80;99.90
32348;DHT22;18821;44.800;10.326;2022-07-21T03:17:04;25.90;99.90
32348;DHT22;18821;44.800;10.326;2022-07-21T03:19:30;25.90;99.90
32348;DHT22;18821;44.800;10.326;2022-07-21T03:21:56;25.80;99.90
32348;DHT22;18821;44.800;10.326;2022-07-21T03:24:22;25.80;99.90
32348;DHT22;18821;44.800;10.326;2022-07-21T03:26:48;25.70;99.90
32348;DHT22;18821;44.800;10.326;2022-07-21T03:29:14;25.70;99.90
32348;DHT22;18821;44.800;10.326;2022-07-21T03:31:40;25.70;99.90
32348;DHT22;18821;44.800;10.326;2022-07-21T03:34:06;25.60;99.90
32348;DHT22;18821;44.800;10.326;2022-07-21T03:36:32;25.60;99.90
32348;DHT22;18821;44.800;10.326;2022-07-21T03:38:58;25.50;99.90
32348;DHT22;18821;44.800;10.326;2022-07-21T03:41:24;25.60;99.90
32348;DHT22;18821;44.800;10.326;2022-07-21T03:43:50;25.50;99.90
32348;DHT22;18821;44.800;10.326;2022-07-21T03:46:16;25.40;99.90
32348;DHT22;18821;44.800;10.326;2022-07-21T03:48:41;25.40;99.90
32348;DHT22;18821;44.800;10.326;2022-07-21T03:51:07;25.40;99.90
32348;DHT22;18821;44.800;10.326;2022-07-21T03:53:35;25.50;99.90
32348;DHT22;18821;44.800;10.326;2022-07-21T03:56:01;25.50;99.90
32348;DHT22;18821;44.800;10.326;2022-07-21T03:58:27;25.50;99.90
32348;DHT22;18821;44.800;10.326;2022-07-21T04:00:53;25.60;99.90
32348;DHT22;18821;44.800;10.326;2022-07-21T04:03:19;25.60;99.90
32348;DHT22;18821;44.800;10.326;2022-07-21T04:05:45;25.60;99.90
32348;DHT22;18821;44.800;10.326;2022-07-21T04:08:14;25.60;99.90
32348;DHT22;18821;44.800;10.326;2022-07-21T04:10:41;25.60;99.90
32348;DHT22;18821;44.800;10.326;2022-07-21T04:13:10;25.60;99.90
32348;DHT22;18821;44.800;10.326;2022-07-21T04:15:37;25.50;99.90
32348;DHT22;18821;44.800;10.326;2022-07-21T04:18:05;25.50;99.90
32348;DHT22;18821;44.800;10.326;2022-07-21T04:20:32;25.40;99.90
32348;DHT22;18821;44.800;10.326;2022-07-21T04:22:58;25.50;99.90
32348;DHT22;18821;44.800;10.326;2022-07-21T04:25:23;25.50;99.90
32348;DHT22;18821;44.800;10.326;2022-07-21T04:27:50;25.60;99.90
32348;DHT22;18821;44.800;10.326;2022-07-21T04:30:18;25.60;99.90
32348;DHT22;18821;44.800;10.326;2022-07-21T04:32:45;25.60;99.90
32348;DHT22;18821;44.800;10.326;2022-07-21T04:35:11;25.60;99.90
32348;DHT22;18821;44.800;10.326;2022-07-21T04:37:38;25.60;99.90
32348;DHT22;18821;44.800;10.326;2022-07-21T04:40:06;25.70;99.90
32348;DHT22;18821;44.800;10.326;2022-07-21T04:42:34;25.80;99.90
32348;DHT22;18821;44.800;10.326;2022-07-21T04:45:00;25.80;99.90
32348;DHT22;18821;44.800;10.326;2022-07-21T04:47:26;25.80;99.90
32348;DHT22;18821;44.800;10.326;2022-07-21T04:49:52;25.80;99.90
32348;DHT22;18821;44.800;10.326;2022-07-21T04:52:18;25.80;99.90
32348;DHT22;18821;44.800;10.326;2022-07-21T04:54:45;25.80;99.90
32348;DHT22;18821;44.800;10.326;2022-07-21T04:57:11;25.80;99.90
32348;DHT22;18821;44.800;10.326;2022-07-21T04:59:40;25.80;99.90
32348;DHT22;18821;44.800;10.326;2022-07-21T05:02:06;26.00;99.90
32348;DHT22;18821;44.800;10.326;2022-07-21T05:04:33;26.00;99.90
32348;DHT22;18821;44.800;10.326;2022-07-21T05:06:58;26.20;99.90
32348;DHT22;18821;44.800;10.326;2022-07-21T05:09:27;26.10;99.90
32348;DHT22;18821;44.800;10.326;2022-07-21T05:11:53;25.90;99.90
32348;DHT22;18821;44.800;10.326;2022-07-21T05:14:19;25.80;99.90
32348;DHT22;18821;44.800;10.326;2022-07-21T05:16:45;25.90;99.90
32348;DHT22;18821;44.800;10.326;2022-07-21T05:19:11;26.00;99.90
32348;DHT22;18821;44.800;10.326;2022-07-21T05:21:37;26.00;99.90
32348;DHT22;18821;44.800;10.326;2022-07-21T05:24:03;26.00;99.90
32348;DHT22;18821;44.800;10.326;2022-07-21T05:26:29;25.90;99.90
32348;DHT22;18821;44.800;10.326;2022-07-21T05:28:55;25.80;99.90
32348;DHT22;18821;44.800;10.326;2022-07-21T05:31:21;25.90;99.90
32348;DHT22;18821;44.800;10.326;2022-07-21T05:33:47;25.90;99.90
32348;DHT22;18821;44.800;10.326;2022-07-21T05:36:12;26.00;99.90
32348;DHT22;18821;44.800;10.326;2022-07-21T05:38:38;26.10;99.90
32348;DHT22;18821;44.800;10.326;2022-07-21T05:41:04;26.30;99.90
32348;DHT22;18821;44.800;10.326;2022-07-21T05:43:30;26.50;99.90
32348;DHT22;18821;44.800;10.326;2022-07-21T05:45:57;26.70;99.90
32348;DHT22;18821;44.800;10.326;2022-07-21T05:48:23;26.70;99.90
32348;DHT22;18821;44.800;10.326;2022-07-21T05:50:49;26.80;99.90
32348;DHT22;18821;44.800;10.326;2022-07-21T05:53:15;26.90;99.90
32348;DHT22;18821;44.800;10.326;2022-07-21T05:55:41;27.10;99.90
32348;DHT22;18821;44.800;10.326;2022-07-21T05:58:07;27.10;99.90
32348;DHT22;18821;44.800;10.326;2022-07-21T06:00:33;27.10;99.90
32348;DHT22;18821;44.800;10.326;2022-07-21T06:02:59;27.50;99.90
32348;DHT22;18821;44.800;10.326;2022-07-21T06:05:25;27.50;99.90
32348;DHT22;18821;44.800;10.326;2022-07-21T06:07:51;27.40;99.90
32348;DHT22;18821;44.800;10.326;2022-07-21T06:10:17;27.40;99.90
32348;DHT22;18821;44.800;10.326;2022-07-21T06:12:44;27.20;99.90
32348;DHT22;18821;44.800;10.326;2022-07-21T06:15:10;27.30;99.90
32348;DHT22;18821;44.800;10.326;2022-07-21T06:17:44;27.40;99.90
32348;DHT22;18821;44.800;10.326;2022-07-21T06:20:11;27.70;99.90
32348;DHT22;18821;44.800;10.326;2022-07-21T06:22:38;28.30;99.90
32348;DHT22;18821;44.800;10.326;2022-07-21T06:25:04;28.10;99.90
32348;DHT22;18821;44.800;10.326;2022-07-21T06:27:31;28.20;99.90
32348;DHT22;18821;44.800;10.326;2022-07-21T06:29:58;28.40;99.90
32348;DHT22;18821;44.800;10.326;2022-07-21T06:32:25;28.90;99.90
32348;DHT22;18821;44.800;10.326;2022-07-21T06:34:51;29.20;99.90
32348;DHT22;18821;44.800;10.326;2022-07-21T06:37:17;29.30;99.90
32348;DHT22;18821;44.800;10.326;2022-07-21T06:39:43;29.30;99.90
32348;DHT22;18821;44.800;10.326;2022-07-21T06:42:09;29.20;99.90
32348;DHT22;18821;44.800;10.326;2022-07-21T06:44:35;29.40;99.90
32348;DHT22;18821;44.800;10.326;2022-07-21T06:47:01;29.50;99.50
32348;DHT22;18821;44.800;10.326;2022-07-21T06:49:31;29.60;99.20
32348;DHT22;18821;44.800;10.326;2022-07-21T06:51:57;30.00;98.40
32348;DHT22;18821;44.800;10.326;2022-07-21T06:54:23;30.70;97.30
32348;DHT22;18821;44.800;10.326;2022-07-21T06:56:49;31.20;96.80
32348;DHT22;18821;44.800;10.326;2022-07-21T06:59:15;31.10;96.30
32348;DHT22;18821;44.800;10.326;2022-07-21T07:01:41;30.60;96.50
32348;DHT22;18821;44.800;10.326;2022-07-21T07:04:08;30.80;96.10
32348;DHT22;18821;44.800;10.326;2022-07-21T07:06:34;30.80;96.10
32348;DHT22;18821;44.800;10.326;2022-07-21T07:09:00;30.70;96.10
32348;DHT22;18821;44.800;10.326;2022-07-21T07:11:26;30.60;96.00
32348;DHT22;18821;44.800;10.326;2022-07-21T07:13:52;30.50;96.10
32348;DHT22;18821;44.800;10.326;2022-07-21T07:16:18;30.50;96.00
32348;DHT22;18821;44.800;10.326;2022-07-21T07:18:43;30.50;96.10
32348;DHT22;18821;44.800;10.326;2022-07-21T07:21:09;30.50;96.10
32348;DHT22;18821;44.800;10.326;2022-07-21T07:23:35;30.30;95.80
32348;DHT22;18821;44.800;10.326;2022-07-21T07:26:01;30.40;96.00
32348;DHT22;18821;44.800;10.326;2022-07-21T07:28:27;30.30;96.10
32348;DHT22;18821;44.800;10.326;2022-07-21T07:30:53;30.00;96.70
32348;DHT22;18821;44.800;10.326;2022-07-21T07:33:19;29.50;98.10
32348;DHT22;18821;44.800;10.326;2022-07-21T07:35:45;29.20;99.00
32348;DHT22;18821;44.800;10.326;2022-07-21T07:38:15;28.90;99.70
32348;DHT22;18821;44.800;10.326;2022-07-21T07:40:41;28.60;99.90
32348;DHT22;18821;44.800;10.326;2022-07-21T07:43:07;28.70;99.90
32348;DHT22;18821;44.800;10.326;2022-07-21T07:45:37;28.70;99.60
32348;DHT22;18821;44.800;10.326;2022-07-21T07:48:04;29.00;99.50
32348;DHT22;18821;44.800;10.326;2022-07-21T07:50:30;29.40;99.50
32348;DHT22;18821;44.800;10.326;2022-07-21T07:52:56;29.60;99.00
32348;DHT22;18821;44.800;10.326;2022-07-21T07:55:22;29.90;98.80
32348;DHT22;18821;44.800;10.326;2022-07-21T07:57:48;29.90;98.60
32348;DHT22;18821;44.800;10.326;2022-07-21T08:00:16;30.00;98.50
32348;DHT22;18821;44.800;10.326;2022-07-21T08:02:42;30.10;98.30
32348;DHT22;18821;44.800;10.326;2022-07-21T08:05:10;30.20;98.30
32348;DHT22;18821;44.800;10.326;2022-07-21T08:07:37;30.20;98.10
32348;DHT22;18821;44.800;10.326;2022-07-21T08:10:08;30.30;97.50
32348;DHT22;18821;44.800;10.326;2022-07-21T08:12:35;30.10;97.10
32348;DHT22;18821;44.800;10.326;2022-07-21T08:15:02;29.60;98.00
32348;DHT22;18821;44.800;10.326;2022-07-21T08:17:28;29.90;97.60
32348;DHT22;18821;44.800;10.326;2022-07-21T08:19:54;29.90;97.80
32348;DHT22;18821;44.800;10.326;2022-07-21T08:22:19;30.20;97.50
32348;DHT22;18821;44.800;10.326;2022-07-21T08:24:45;30.60;96.90
32348;DHT22;18821;44.800;10.326;2022-07-21T08:27:11;30.80;96.80
32348;DHT22;18821;44.800;10.326;2022-07-21T08:29:37;30.90;96.20
32348;DHT22;18821;44.800;10.326;2022-07-21T08:32:04;31.10;95.90
32348;DHT22;18821;44.800;10.326;2022-07-21T08:34:30;31.20;95.70
32348;DHT22;18821;44.800;10.326;2022-07-21T08:36:57;31.40;95.70
32348;DHT22;18821;44.800;10.326;2022-07-21T08:39:23;31.40;95.90
32348;DHT22;18821;44.800;10.326;2022-07-21T08:41:51;31.40;95.70
32348;DHT22;18821;44.800;10.326;2022-07-21T08:44:17;31.20;95.30
32348;DHT22;18821;44.800;10.326;2022-07-21T08:46:49;30.80;95.50
32348;DHT22;18821;44.800;10.326;2022-07-21T08:49:20;31.20;95.70
32348;DHT22;18821;44.800;10.326;2022-07-21T08:51:46;31.40;95.20
32348;DHT22;18821;44.800;10.326;2022-07-21T08:54:13;31.40;95.60
32348;DHT22;18821;44.800;10.326;2022-07-21T08:56:38;31.70;95.80
32348;DHT22;18821;44.800;10.326;2022-07-21T08:59:04;31.90;95.40
32348;DHT22;18821;44.800;10.326;2022-07-21T09:01:31;31.90;95.30
32348;DHT22;18821;44.800;10.326;2022-07-21T09:07:04;31.80;95.80
32348;DHT22;18821;44.800;10.326;2022-07-21T09:09:31;31.70;95.70
32348;DHT22;18821;44.800;10.326;2022-07-21T09:11:58;31.80;95.90
32348;DHT22;18821;44.800;10.326;2022-07-21T09:14:26;31.90;95.90
32348;DHT22;18821;44.800;10.326;2022-07-21T09:16:55;32.00;95.90
32348;DHT22;18821;44.800;10.326;2022-07-21T09:19:30;32.20;95.60
32348;DHT22;18821;44.800;10.326;2022-07-21T09:22:03;32.30;94.60
32348;DHT22;18821;44.800;10.326;2022-07-21T09:24:31;32.30;94.30
32348;DHT22;18821;44.800;10.326;2022-07-21T09:27:06;32.30;94.20
32348;DHT22;18821;44.800;10.326;2022-07-21T09:29:41;32.50;93.40
32348;DHT22;18821;44.800;10.326;2022-07-21T09:35:04;32.80;93.00
32348;DHT22;18821;44.800;10.326;2022-07-21T09:37:31;32.80;92.70
32348;DHT22;18821;44.800;10.326;2022-07-21T09:40:00;32.90;93.10
32348;DHT22;18821;44.800;10.326;2022-07-21T09:42:35;32.80;93.40
32348;DHT22;18821;44.800;10.326;2022-07-21T09:45:11;32.90;92.90
32348;DHT22;18821;44.800;10.326;2022-07-21T09:47:38;33.00;93.10
32348;DHT22;18821;44.800;10.326;2022-07-21T09:50:08;33.10;92.90
32348;DHT22;18821;44.800;10.326;2022-07-21T09:52:36;33.10;92.30
32348;DHT22;18821;44.800;10.326;2022-07-21T09:55:04;33.10;91.30
32348;DHT22;18821;44.800;10.326;2022-07-21T09:57:30;33.20;91.50
32348;DHT22;18821;44.800;10.326;2022-07-21T09:59:57;33.10;90.80
32348;DHT22;18821;44.800;10.326;2022-07-21T10:02:27;33.00;90.90
32348;DHT22;18821;44.800;10.326;2022-07-21T10:05:06;33.10;91.20
32348;DHT22;18821;44.800;10.326;2022-07-21T10:07:36;33.20;90.40
32348;DHT22;18821;44.800;10.326;2022-07-21T10:10:03;33.20;90.60
32348;DHT22;18821;44.800;10.326;2022-07-21T10:12:29;33.40;91.00
32348;DHT22;18821;44.800;10.326;2022-07-21T10:14:55;33.50;91.20
32348;DHT22;18821;44.800;10.326;2022-07-21T10:17:23;33.50;91.20
32348;DHT22;18821;44.800;10.326;2022-07-21T10:25:08;33.60;90.00
32348;DHT22;18821;44.800;10.326;2022-07-21T10:27:34;33.70;89.80
32348;DHT22;18821;44.800;10.326;2022-07-21T10:30:04;33.80;89.60
32348;DHT22;18821;44.800;10.326;2022-07-21T10:35:02;34.20;90.30
32348;DHT22;18821;44.800;10.326;2022-07-21T10:40:06;34.10;88.40
32348;DHT22;18821;44.800;10.326;2022-07-21T10:45:30;34.30;86.00
32348;DHT22;18821;44.800;10.326;2022-07-21T10:47:58;34.30;83.60
32348;DHT22;18821;44.800;10.326;2022-07-21T10:50:38;34.50;84.10
32348;DHT22;18821;44.800;10.326;2022-07-21T10:53:04;34.60;84.20
32348;DHT22;18821;44.800;10.326;2022-07-21T10:55:35;34.60;84.90
32348;DHT22;18821;44.800;10.326;2022-07-21T10:58:29;34.60;86.50
32348;DHT22;18821;44.800;10.326;2022-07-21T11:03:43;34.70;85.30
32348;DHT22;18821;44.800;10.326;2022-07-21T11:11:22;34.80;84.70
32348;DHT22;18821;44.800;10.326;2022-07-21T11:14:03;34.90;84.50
32348;DHT22;18821;44.800;10.326;2022-07-21T11:19:36;35.00;85.00
32348;DHT22;18821;44.800;10.326;2022-07-21T11:24:38;35.20;85.10
32348;DHT22;18821;44.800;10.326;2022-07-21T11:29:32;35.40;85.90
32348;DHT22;18821;44.800;10.326;2022-07-21T11:31:59;35.40;85.00
32348;DHT22;18821;44.800;10.326;2022-07-21T11:34:45;35.50;85.10
32348;DHT22;18821;44.800;10.326;2022-07-21T11:37:36;35.50;85.10
32348;DHT22;18821;44.800;10.326;2022-07-21T11:40:00;35.50;85.30
32348;DHT22;18821;44.800;10.326;2022-07-21T11:42:27;35.70;85.40
32348;DHT22;18821;44.800;10.326;2022-07-21T11:44:54;35.70;85.20
32348;DHT22;18821;44.800;10.326;2022-07-21T11:47:20;35.60;85.20
32348;DHT22;18821;44.800;10.326;2022-07-21T11:49:52;35.70;84.80
32348;DHT22;18821;44.800;10.326;2022-07-21T11:52:27;35.60;84.30
32348;DHT22;18821;44.800;10.326;2022-07-21T11:54:55;35.70;83.70
32348;DHT22;18821;44.800;10.326;2022-07-21T11:57:23;35.40;82.80
32348;DHT22;18821;44.800;10.326;2022-07-21T11:59:50;35.10;83.10
32348;DHT22;18821;44.800;10.326;2022-07-21T12:02:19;35.20;83.10
32348;DHT22;18821;44.800;10.326;2022-07-21T12:07:48;35.60;82.70
32348;DHT22;18821;44.800;10.326;2022-07-21T12:10:29;35.80;82.30
32348;DHT22;18821;44.800;10.326;2022-07-21T12:13:06;36.00;82.50
32348;DHT22;18821;44.800;10.326;2022-07-21T12:15:36;36.00;82.20
32348;DHT22;18821;44.800;10.326;2022-07-21T12:18:19;36.00;82.30
32348;DHT22;18821;44.800;10.326;2022-07-21T12:20:46;35.80;81.70
32348;DHT22;18821;44.800;10.326;2022-07-21T12:23:28;35.80;83.50
32348;DHT22;18821;44.800;10.326;2022-07-21T12:25:55;35.80;82.00
32348;DHT22;18821;44.800;10.326;2022-07-21T12:28:44;35.90;82.20
32348;DHT22;18821;44.800;10.326;2022-07-21T12:31:14;35.50;81.80
32348;DHT22;18821;44.800;10.326;2022-07-21T12:33:42;35.80;81.80
32348;DHT22;18821;44.800;10.326;2022-07-21T12:36:09;35.90;82.40
32348;DHT22;18821;44.800;10.326;2022-07-21T12:38:42;36.10;81.70
32348;DHT22;18821;44.800;10.326;2022-07-21T12:41:10;36.40;81.20
32348;DHT22;18821;44.800;10.326;2022-07-21T12:43:36;36.30;80.00
32348;DHT22;18821;44.800;10.326;2022-07-21T12:46:10;36.30;80.20
32348;DHT22;18821;44.800;10.326;2022-07-21T12:48:37;36.40;80.00
32348;DHT22;18821;44.800;10.326;2022-07-21T12:51:07;36.50;79.70
32348;DHT22;18821;44.800;10.326;2022-07-21T12:56:06;36.80;79.60
32348;DHT22;18821;44.800;10.326;2022-07-21T12:58:32;36.60;80.60
32348;DHT22;18821;44.800;10.326;2022-07-21T13:00:59;36.70;80.50
32348;DHT22;18821;44.800;10.326;2022-07-21T13:03:28;36.80;80.70
32348;DHT22;18821;44.800;10.326;2022-07-21T13:05:54;37.00;80.00
32348;DHT22;18821;44.800;10.326;2022-07-21T13:08:20;37.00;79.70
32348;DHT22;18821;44.800;10.326;2022-07-21T13:10:46;37.00;80.10
32348;DHT22;18821;44.800;10.326;2022-07-21T13:13:12;37.00;79.70
32348;DHT22;18821;44.800;10.326;2022-07-21T13:15:38;37.00;80.00
32348;DHT22;18821;44.800;10.326;2022-07-21T13:18:04;36.90;80.00
32348;DHT22;18821;44.800;10.326;2022-07-21T13:20:30;37.00;80.00
32348;DHT22;18821;44.800;10.326;2022-07-21T13:22:56;37.10;79.80
32348;DHT22;18821;44.800;10.326;2022-07-21T13:25:22;37.20;79.60
32348;DHT22;18821;44.800;10.326;2022-07-21T13:27:48;37.20;79.70
32348;DHT22;18821;44.800;10.326;2022-07-21T13:30:14;37.30;79.90
32348;DHT22;18821;44.800;10.326;2022-07-21T13:32:40;37.30;80.00
32348;DHT22;18821;44.800;10.326;2022-07-21T13:35:07;37.30;80.80
32348;DHT22;18821;44.800;10.326;2022-07-21T13:37:33;37.30;81.10
32348;DHT22;18821;44.800;10.326;2022-07-21T13:39:59;37.30;80.30
32348;DHT22;18821;44.800;10.326;2022-07-21T13:42:25;37.20;80.40
32348;DHT22;18821;44.800;10.326;2022-07-21T13:44:51;37.30;79.90
32348;DHT22;18821;44.800;10.326;2022-07-21T13:47:17;37.40;79.80
32348;DHT22;18821;44.800;10.326;2022-07-21T13:49:42;37.40;79.70
32348;DHT22;18821;44.800;10.326;2022-07-21T13:52:08;37.50;79.70
32348;DHT22;18821;44.800;10.326;2022-07-21T13:54:34;37.50;78.80
32348;DHT22;18821;44.800;10.326;2022-07-21T13:57:01;37.50;79.00
32348;DHT22;18821;44.800;10.326;2022-07-21T13:59:27;37.40;78.80
32348;DHT22;18821;44.800;10.326;2022-07-21T14:01:53;37.30;79.90
32348;DHT22;18821;44.800;10.326;2022-07-21T14:04:19;37.30;81.00
32348;DHT22;18821;44.800;10.326;2022-07-21T14:06:45;37.30;79.90
32348;DHT22;18821;44.800;10.326;2022-07-21T14:09:13;37.30;79.20
32348;DHT22;18821;44.800;10.326;2022-07-21T14:11:39;37.50;79.10
32348;DHT22;18821;44.800;10.326;2022-07-21T14:14:05;37.60;79.60
32348;DHT22;18821;44.800;10.326;2022-07-21T14:16:31;37.40;79.40
32348;DHT22;18821;44.800;10.326;2022-07-21T14:18:57;37.20;80.10
32348;DHT22;18821;44.800;10.326;2022-07-21T14:21:23;37.20;79.50
32348;DHT22;18821;44.800;10.326;2022-07-21T14:23:49;37.20;79.40
32348;DHT22;18821;44.800;10.326;2022-07-21T14:26:35;37.10;79.60
32348;DHT22;18821;44.800;10.326;2022-07-21T14:29:03;37.20;80.70
32348;DHT22;18821;44.800;10.326;2022-07-21T14:31:29;37.20;80.40
32348;DHT22;18821;44.800;10.326;2022-07-21T14:33:55;37.20;80.60
32348;DHT22;18821;44.800;10.326;2022-07-21T14:36:21;37.40;80.70
32348;DHT22;18821;44.800;10.326;2022-07-21T14:38:46;37.40;80.40
32348;DHT22;18821;44.800;10.326;2022-07-21T14:41:12;37.40;80.40
32348;DHT22;18821;44.800;10.326;2022-07-21T14:43:38;37.20;79.90
32348;DHT22;18821;44.800;10.326;2022-07-21T14:46:04;37.10;80.20
32348;DHT22;18821;44.800;10.326;2022-07-21T14:48:30;37.10;80.50
32348;DHT22;18821;44.800;10.326;2022-07-21T14:50:56;37.20;80.80
32348;DHT22;18821;44.800;10.326;2022-07-21T14:53:22;37.10;80.80
32348;DHT22;18821;44.800;10.326;2022-07-21T14:55:48;37.30;80.60
32348;DHT22;18821;44.800;10.326;2022-07-21T14:58:14;37.30;80.00
32348;DHT22;18821;44.800;10.326;2022-07-21T15:00:41;37.20;80.20
32348;DHT22;18821;44.800;10.326;2022-07-21T15:03:07;37.40;80.40
32348;DHT22;18821;44.800;10.326;2022-07-21T15:05:33;37.40;80.00
32348;DHT22;18821;44.800;10.326;2022-07-21T15:07:59;37.40;80.20
32348;DHT22;18821;44.800;10.326;2022-07-21T15:10:25;37.50;80.30
32348;DHT22;18821;44.800;10.326;2022-07-21T15:12:51;37.30;80.10
32348;DHT22;18821;44.800;10.326;2022-07-21T15:15:17;37.30;80.00
32348;DHT22;18821;44.800;10.326;2022-07-21T15:17:43;37.30;80.10
32348;DHT22;18821;44.800;10.326;2022-07-21T15:20:09;37.40;79.50
32348;DHT22;18821;44.800;10.326;2022-07-21T15:22:35;37.30;79.70
32348;DHT22;18821;44.800;10.326;2022-07-21T15:25:01;37.20;79.70
32348;DHT22;18821;44.800;10.326;2022-07-21T15:27:28;37.10;79.70
32348;DHT22;18821;44.800;10.326;2022-07-21T15:29:55;37.20;79.80
32348;DHT22;18821;44.800;10.326;2022-07-21T15:32:21;37.40;80.00
32348;DHT22;18821;44.800;10.326;2022-07-21T15:34:47;37.30;79.70
32348;DHT22;18821;44.800;10.326;2022-07-21T15:37:13;37.30;79.40
32348;DHT22;18821;44.800;10.326;2022-07-21T15:39:39;37.30;80.00
32348;DHT22;18821;44.800;10.326;2022-07-21T15:42:07;37.20;79.80
32348;DHT22;18821;44.800;10.326;2022-07-21T15:44:33;37.00;79.50
32348;DHT22;18821;44.800;10.326;2022-07-21T15:46:59;36.80;79.60
32348;DHT22;18821;44.800;10.326;2022-07-21T15:49:25;36.70;80.20
32348;DHT22;18821;44.800;10.326;2022-07-21T15:51:51;36.70;80.00
32348;DHT22;18821;44.800;10.326;2022-07-21T15:54:17;36.80;79.80
32348;DHT22;18821;44.800;10.326;2022-07-21T15:56:43;36.90;79.50
32348;DHT22;18821;44.800;10.326;2022-07-21T15:59:09;37.10;80.00